Terminal Aerodrome Forecast
Issued by NWS

Home | Current Version | Previous Version | Graphics & Text | Print | Product List | Glossary On
Versions: 1 2 3 4 5 6 7 8 9 10 11 12 13 14 15 16 17 18 19 20 21 22 23 24 25 26 27 28 29 30 31 32 33 34 35 36 37 38 39 40 41 42
000
FTUS43 KGRB 221500 AAB
TAFRHI
TAF AMD
KRHI 221504Z 2215/2312 23009G16KT 1/2SM FZFG OVC002
      TEMPO 2215/2219 1SM BR OVC004
     FM222100 22005KT 1SM BR OVC004
     FM230300 16005KT 1SM -DZ BR OVC004
     FM230900 14005KT 2SM -RA BR OVC002=

USA.gov is the U.S. government's official web portal to all federal, state and local government web resources and services.